sensor_id;sensor_type;location;lat;lon;timestamp;P1;durP1;ratioP1;P2;durP2;ratioP2
54517;SDS011;40423;53.176;6.002;2023-09-19T00:01:07;10.63;;;2.13;;
54517;SDS011;40423;53.176;6.002;2023-09-19T00:03:37;6.47;;;1.58;;
54517;SDS011;40423;53.176;6.002;2023-09-19T00:06:02;9.32;;;1.98;;
54517;SDS011;40423;53.176;6.002;2023-09-19T00:08:35;12.48;;;2.45;;
54517;SDS011;40423;53.176;6.002;2023-09-19T00:11:01;10.60;;;2.22;;
54517;SDS011;40423;53.176;6.002;2023-09-19T00:13:29;10.00;;;2.10;;
54517;SDS011;40423;53.176;6.002;2023-09-19T00:15:56;12.55;;;2.35;;
54517;SDS011;40423;53.176;6.002;2023-09-19T00:18:24;7.18;;;2.10;;
54517;SDS011;40423;53.176;6.002;2023-09-19T00:20:57;8.07;;;2.97;;
54517;SDS011;40423;53.176;6.002;2023-09-19T00:23:26;10.13;;;2.35;;
54517;SDS011;40423;53.176;6.002;2023-09-19T00:25:53;11.50;;;2.30;;
54517;SDS011;40423;53.176;6.002;2023-09-19T00:28:22;11.85;;;2.63;;
54517;SDS011;40423;53.176;6.002;2023-09-19T00:30:48;12.60;;;2.70;;
54517;SDS011;40423;53.176;6.002;2023-09-19T00:33:17;11.30;;;2.58;;
54517;SDS011;40423;53.176;6.002;2023-09-19T00:35:47;10.60;;;2.20;;
54517;SDS011;40423;53.176;6.002;2023-09-19T00:38:17;10.00;;;2.35;;
54517;SDS011;40423;53.176;6.002;2023-09-19T00:40:48;9.52;;;1.95;;
54517;SDS011;40423;53.176;6.002;2023-09-19T00:43:17;12.95;;;2.63;;
54517;SDS011;40423;53.176;6.002;2023-09-19T00:45:44;10.32;;;2.15;;
54517;SDS011;40423;53.176;6.002;2023-09-19T00:48:13;13.32;;;2.53;;
54517;SDS011;40423;53.176;6.002;2023-09-19T00:50:41;12.73;;;3.40;;
54517;SDS011;40423;53.176;6.002;2023-09-19T00:53:09;8.95;;;2.22;;
54517;SDS011;40423;53.176;6.002;2023-09-19T00:55:39;11.50;;;2.80;;
54517;SDS011;40423;53.176;6.002;2023-09-19T00:58:07;8.23;;;2.28;;
54517;SDS011;40423;53.176;6.002;2023-09-19T01:00:35;6.80;;;2.15;;
54517;SDS011;40423;53.176;6.002;2023-09-19T01:03:01;8.98;;;3.42;;
54517;SDS011;40423;53.176;6.002;2023-09-19T01:05:27;7.78;;;2.20;;
54517;SDS011;40423;53.176;6.002;2023-09-19T01:07:53;10.73;;;2.47;;
54517;SDS011;40423;53.176;6.002;2023-09-19T01:10:19;13.80;;;2.60;;
54517;SDS011;40423;53.176;6.002;2023-09-19T01:26:43;6.82;;;1.77;;
54517;SDS011;40423;53.176;6.002;2023-09-19T01:29:46;7.68;;;1.98;;
54517;SDS011;40423;53.176;6.002;2023-09-19T01:32:17;7.95;;;1.77;;
54517;SDS011;40423;53.176;6.002;2023-09-19T01:34:52;7.40;;;1.73;;
54517;SDS011;40423;53.176;6.002;2023-09-19T01:37:21;11.85;;;2.35;;
54517;SDS011;40423;53.176;6.002;2023-09-19T01:39:52;8.25;;;2.10;;
54517;SDS011;40423;53.176;6.002;2023-09-19T01:42:35;5.88;;;1.80;;
54517;SDS011;40423;53.176;6.002;2023-09-19T01:45:12;7.28;;;1.60;;
54517;SDS011;40423;53.176;6.002;2023-09-19T01:47:54;9.35;;;1.88;;
54517;SDS011;40423;53.176;6.002;2023-09-19T01:50:31;7.75;;;2.28;;
54517;SDS011;40423;53.176;6.002;2023-09-19T01:53:05;10.95;;;2.40;;
54517;SDS011;40423;53.176;6.002;2023-09-19T01:55:41;8.63;;;2.25;;
54517;SDS011;40423;53.176;6.002;2023-09-19T02:00:52;6.93;;;1.92;;
54517;SDS011;40423;53.176;6.002;2023-09-19T02:03:20;10.57;;;1.98;;
54517;SDS011;40423;53.176;6.002;2023-09-19T02:05:49;11.20;;;2.25;;
54517;SDS011;40423;53.176;6.002;2023-09-19T02:08:17;10.98;;;2.38;;
54517;SDS011;40423;53.176;6.002;2023-09-19T02:10:44;16.88;;;2.42;;
54517;SDS011;40423;53.176;6.002;2023-09-19T02:13:15;7.88;;;1.92;;
54517;SDS011;40423;53.176;6.002;2023-09-19T02:15:45;7.57;;;1.88;;
54517;SDS011;40423;53.176;6.002;2023-09-19T02:18:11;9.35;;;3.03;;
54517;SDS011;40423;53.176;6.002;2023-09-19T02:20:38;7.13;;;1.60;;
54517;SDS011;40423;53.176;6.002;2023-09-19T02:23:04;8.00;;;2.42;;
54517;SDS011;40423;53.176;6.002;2023-09-19T02:28:32;6.75;;;2.15;;
54517;SDS011;40423;53.176;6.002;2023-09-19T02:30:59;8.95;;;2.65;;
54517;SDS011;40423;53.176;6.002;2023-09-19T02:33:25;10.32;;;1.88;;
54517;SDS011;40423;53.176;6.002;2023-09-19T02:35:54;6.90;;;1.95;;
54517;SDS011;40423;53.176;6.002;2023-09-19T02:38:24;9.03;;;2.57;;
54517;SDS011;40423;53.176;6.002;2023-09-19T02:40:51;9.02;;;2.08;;
54517;SDS011;40423;53.176;6.002;2023-09-19T02:43:20;7.28;;;1.75;;
54517;SDS011;40423;53.176;6.002;2023-09-19T02:45:47;8.93;;;2.17;;
54517;SDS011;40423;53.176;6.002;2023-09-19T02:48:15;11.50;;;2.33;;
54517;SDS011;40423;53.176;6.002;2023-09-19T02:50:41;12.02;;;1.95;;
54517;SDS011;40423;53.176;6.002;2023-09-19T02:53:08;7.50;;;2.10;;
54517;SDS011;40423;53.176;6.002;2023-09-19T02:55:37;7.68;;;2.03;;
54517;SDS011;40423;53.176;6.002;2023-09-19T02:58:05;12.13;;;2.30;;
54517;SDS011;40423;53.176;6.002;2023-09-19T03:00:36;7.43;;;1.83;;
54517;SDS011;40423;53.176;6.002;2023-09-19T03:03:02;11.10;;;2.15;;
54517;SDS011;40423;53.176;6.002;2023-09-19T03:05:30;7.45;;;2.35;;
54517;SDS011;40423;53.176;6.002;2023-09-19T03:07:56;8.15;;;2.28;;
54517;SDS011;40423;53.176;6.002;2023-09-19T03:10:22;8.48;;;2.05;;
54517;SDS011;40423;53.176;6.002;2023-09-19T03:12:49;10.77;;;2.35;;
54517;SDS011;40423;53.176;6.002;2023-09-19T03:15:15;11.20;;;1.90;;
54517;SDS011;40423;53.176;6.002;2023-09-19T03:17:43;7.60;;;2.08;;
54517;SDS011;40423;53.176;6.002;2023-09-19T03:20:10;12.63;;;2.13;;
54517;SDS011;40423;53.176;6.002;2023-09-19T03:22:38;7.72;;;1.80;;
54517;SDS011;40423;53.176;6.002;2023-09-19T03:25:07;8.13;;;1.75;;
54517;SDS011;40423;53.176;6.002;2023-09-19T03:27:34;8.38;;;2.00;;
54517;SDS011;40423;53.176;6.002;2023-09-19T03:30:00;8.98;;;2.30;;
54517;SDS011;40423;53.176;6.002;2023-09-19T03:32:26;7.78;;;1.88;;
54517;SDS011;40423;53.176;6.002;2023-09-19T03:34:51;8.00;;;2.50;;
54517;SDS011;40423;53.176;6.002;2023-09-19T03:37:17;13.68;;;2.65;;
54517;SDS011;40423;53.176;6.002;2023-09-19T03:39:43;8.93;;;1.95;;
54517;SDS011;40423;53.176;6.002;2023-09-19T03:42:09;6.88;;;2.00;;
54517;SDS011;40423;53.176;6.002;2023-09-19T03:44:34;12.05;;;2.17;;
54517;SDS011;40423;53.176;6.002;2023-09-19T03:47:00;8.57;;;2.60;;
54517;SDS011;40423;53.176;6.002;2023-09-19T03:49:26;9.65;;;2.95;;
54517;SDS011;40423;53.176;6.002;2023-09-19T03:51:52;11.20;;;2.35;;
54517;SDS011;40423;53.176;6.002;2023-09-19T03:54:18;9.35;;;2.10;;
54517;SDS011;40423;53.176;6.002;2023-09-19T03:56:44;10.02;;;2.00;;
54517;SDS011;40423;53.176;6.002;2023-09-19T03:59:10;10.10;;;2.35;;
54517;SDS011;40423;53.176;6.002;2023-09-19T04:01:37;11.48;;;2.28;;
54517;SDS011;40423;53.176;6.002;2023-09-19T04:04:03;10.57;;;1.65;;
54517;SDS011;40423;53.176;6.002;2023-09-19T04:06:36;7.18;;;2.15;;
54517;SDS011;40423;53.176;6.002;2023-09-19T04:09:02;9.52;;;2.20;;
54517;SDS011;40423;53.176;6.002;2023-09-19T04:11:32;9.38;;;2.30;;
54517;SDS011;40423;53.176;6.002;2023-09-19T04:13:58;8.45;;;1.67;;
54517;SDS011;40423;53.176;6.002;2023-09-19T04:16:24;9.00;;;2.08;;
54517;SDS011;40423;53.176;6.002;2023-09-19T04:18:50;11.23;;;2.58;;
54517;SDS011;40423;53.176;6.002;2023-09-19T04:21:15;13.18;;;3.00;;
54517;SDS011;40423;53.176;6.002;2023-09-19T04:23:41;8.55;;;2.10;;
54517;SDS011;40423;53.176;6.002;2023-09-19T04:26:08;9.90;;;2.03;;
54517;SDS011;40423;53.176;6.002;2023-09-19T04:28:33;8.50;;;2.08;;
54517;SDS011;40423;53.176;6.002;2023-09-19T04:31:00;11.32;;;2.00;;
54517;SDS011;40423;53.176;6.002;2023-09-19T04:33:26;9.75;;;2.55;;
54517;SDS011;40423;53.176;6.002;2023-09-19T04:35:55;7.85;;;2.10;;
54517;SDS011;40423;53.176;6.002;2023-09-19T04:38:21;13.07;;;2.90;;
54517;SDS011;40423;53.176;6.002;2023-09-19T04:40:47;6.95;;;1.80;;
54517;SDS011;40423;53.176;6.002;2023-09-19T04:43:13;10.20;;;2.05;;
54517;SDS011;40423;53.176;6.002;2023-09-19T04:45:40;13.43;;;2.60;;
54517;SDS011;40423;53.176;6.002;2023-09-19T04:48:06;9.23;;;2.00;;
54517;SDS011;40423;53.176;6.002;2023-09-19T04:50:32;9.00;;;2.15;;
54517;SDS011;40423;53.176;6.002;2023-09-19T04:52:59;10.05;;;2.78;;
54517;SDS011;40423;53.176;6.002;2023-09-19T04:55:26;9.38;;;1.98;;
54517;SDS011;40423;53.176;6.002;2023-09-19T04:57:52;9.65;;;2.10;;
54517;SDS011;40423;53.176;6.002;2023-09-19T05:00:18;9.20;;;2.05;;
54517;SDS011;40423;53.176;6.002;2023-09-19T05:02:51;11.48;;;2.03;;
54517;SDS011;40423;53.176;6.002;2023-09-19T05:05:20;12.25;;;2.10;;
54517;SDS011;40423;53.176;6.002;2023-09-19T05:07:47;12.77;;;2.30;;
54517;SDS011;40423;53.176;6.002;2023-09-19T05:10:13;10.35;;;2.50;;
54517;SDS011;40423;53.176;6.002;2023-09-19T05:12:42;10.65;;;2.13;;
54517;SDS011;40423;53.176;6.002;2023-09-19T05:15:10;11.85;;;1.98;;
54517;SDS011;40423;53.176;6.002;2023-09-19T05:17:37;10.82;;;2.25;;
54517;SDS011;40423;53.176;6.002;2023-09-19T05:20:04;11.75;;;1.60;;
54517;SDS011;40423;53.176;6.002;2023-09-19T05:22:43;9.25;;;2.03;;
54517;SDS011;40423;53.176;6.002;2023-09-19T05:25:11;8.73;;;1.98;;
54517;SDS011;40423;53.176;6.002;2023-09-19T05:27:41;10.38;;;2.30;;
54517;SDS011;40423;53.176;6.002;2023-09-19T05:30:07;9.13;;;2.00;;
54517;SDS011;40423;53.176;6.002;2023-09-19T05:32:34;8.85;;;1.88;;
54517;SDS011;40423;53.176;6.002;2023-09-19T05:34:59;8.85;;;2.20;;
54517;SDS011;40423;53.176;6.002;2023-09-19T05:37:25;10.18;;;2.63;;
54517;SDS011;40423;53.176;6.002;2023-09-19T05:39:51;8.05;;;1.98;;
54517;SDS011;40423;53.176;6.002;2023-09-19T05:42:18;8.18;;;1.67;;
54517;SDS011;40423;53.176;6.002;2023-09-19T05:44:44;8.38;;;2.17;;
54517;SDS011;40423;53.176;6.002;2023-09-19T05:47:10;9.20;;;2.00;;
54517;SDS011;40423;53.176;6.002;2023-09-19T05:49:36;11.38;;;1.92;;
54517;SDS011;40423;53.176;6.002;2023-09-19T05:52:05;10.98;;;2.25;;
54517;SDS011;40423;53.176;6.002;2023-09-19T05:54:31;8.65;;;2.47;;
54517;SDS011;40423;53.176;6.002;2023-09-19T05:56:59;12.10;;;3.13;;
54517;SDS011;40423;53.176;6.002;2023-09-19T05:59:26;13.18;;;2.35;;
54517;SDS011;40423;53.176;6.002;2023-09-19T06:01:52;9.50;;;2.40;;
54517;SDS011;40423;53.176;6.002;2023-09-19T06:04:18;11.48;;;2.35;;
54517;SDS011;40423;53.176;6.002;2023-09-19T06:06:44;9.43;;;2.00;;
54517;SDS011;40423;53.176;6.002;2023-09-19T06:09:10;8.98;;;1.92;;
54517;SDS011;40423;53.176;6.002;2023-09-19T06:11:36;12.02;;;3.80;;
54517;SDS011;40423;53.176;6.002;2023-09-19T06:14:02;11.07;;;2.13;;
54517;SDS011;40423;53.176;6.002;2023-09-19T06:16:29;11.45;;;2.30;;
54517;SDS011;40423;53.176;6.002;2023-09-19T06:18:57;9.95;;;2.25;;
54517;SDS011;40423;53.176;6.002;2023-09-19T06:21:25;8.18;;;2.30;;
54517;SDS011;40423;53.176;6.002;2023-09-19T06:23:52;7.07;;;2.10;;
54517;SDS011;40423;53.176;6.002;2023-09-19T06:26:23;11.98;;;2.20;;
54517;SDS011;40423;53.176;6.002;2023-09-19T06:28:48;11.23;;;2.00;;
54517;SDS011;40423;53.176;6.002;2023-09-19T06:31:14;9.63;;;2.38;;
54517;SDS011;40423;53.176;6.002;2023-09-19T06:33:40;10.75;;;1.95;;
54517;SDS011;40423;53.176;6.002;2023-09-19T06:36:06;12.70;;;2.00;;
54517;SDS011;40423;53.176;6.002;2023-09-19T06:38:33;7.13;;;1.95;;
54517;SDS011;40423;53.176;6.002;2023-09-19T06:41:01;8.98;;;2.00;;
54517;SDS011;40423;53.176;6.002;2023-09-19T06:43:30;10.02;;;2.33;;
54517;SDS011;40423;53.176;6.002;2023-09-19T06:45:56;12.10;;;2.55;;
54517;SDS011;40423;53.176;6.002;2023-09-19T06:48:22;10.20;;;2.47;;
54517;SDS011;40423;53.176;6.002;2023-09-19T06:50:50;9.70;;;2.20;;
54517;SDS011;40423;53.176;6.002;2023-09-19T06:53:18;8.95;;;1.95;;
54517;SDS011;40423;53.176;6.002;2023-09-19T06:55:43;8.23;;;2.30;;
54517;SDS011;40423;53.176;6.002;2023-09-19T06:58:10;8.57;;;2.92;;
54517;SDS011;40423;53.176;6.002;2023-09-19T07:00:36;8.23;;;2.58;;
54517;SDS011;40423;53.176;6.002;2023-09-19T07:03:04;6.80;;;1.85;;
54517;SDS011;40423;53.176;6.002;2023-09-19T07:05:36;11.63;;;2.33;;
54517;SDS011;40423;53.176;6.002;2023-09-19T07:08:04;8.75;;;2.08;;
54517;SDS011;40423;53.176;6.002;2023-09-19T07:10:32;5.15;;;2.08;;
54517;SDS011;40423;53.176;6.002;2023-09-19T07:15:29;12.20;;;2.30;;
54517;SDS011;40423;53.176;6.002;2023-09-19T07:17:58;10.05;;;2.25;;
54517;SDS011;40423;53.176;6.002;2023-09-19T07:20:25;7.82;;;2.00;;
54517;SDS011;40423;53.176;6.002;2023-09-19T07:22:52;11.57;;;2.63;;
54517;SDS011;40423;53.176;6.002;2023-09-19T07:25:20;8.88;;;2.25;;
54517;SDS011;40423;53.176;6.002;2023-09-19T07:27:46;13.30;;;2.30;;
54517;SDS011;40423;53.176;6.002;2023-09-19T07:30:12;13.27;;;3.03;;
54517;SDS011;40423;53.176;6.002;2023-09-19T07:32:38;14.30;;;3.25;;
54517;SDS011;40423;53.176;6.002;2023-09-19T07:35:06;11.43;;;2.63;;
54517;SDS011;40423;53.176;6.002;2023-09-19T07:37:32;10.27;;;2.15;;
54517;SDS011;40423;53.176;6.002;2023-09-19T07:40:04;13.43;;;2.47;;
54517;SDS011;40423;53.176;6.002;2023-09-19T07:42:37;13.15;;;2.65;;
54517;SDS011;40423;53.176;6.002;2023-09-19T07:45:06;8.15;;;2.30;;
54517;SDS011;40423;53.176;6.002;2023-09-19T07:47:33;15.63;;;2.63;;
54517;SDS011;40423;53.176;6.002;2023-09-19T07:49:59;8.38;;;2.15;;
54517;SDS011;40423;53.176;6.002;2023-09-19T07:52:29;14.73;;;3.15;;
54517;SDS011;40423;53.176;6.002;2023-09-19T07:54:59;14.13;;;2.90;;
54517;SDS011;40423;53.176;6.002;2023-09-19T07:57:26;9.05;;;2.63;;
54517;SDS011;40423;53.176;6.002;2023-09-19T07:59:53;17.33;;;3.55;;
54517;SDS011;40423;53.176;6.002;2023-09-19T08:02:19;12.48;;;2.80;;
54517;SDS011;40423;53.176;6.002;2023-09-19T08:04:45;12.57;;;3.20;;
54517;SDS011;40423;53.176;6.002;2023-09-19T08:07:11;10.60;;;3.00;;
54517;SDS011;40423;53.176;6.002;2023-09-19T08:09:38;12.65;;;2.95;;
54517;SDS011;40423;53.176;6.002;2023-09-19T08:12:07;11.18;;;2.83;;
54517;SDS011;40423;53.176;6.002;2023-09-19T08:14:35;11.35;;;2.35;;
54517;SDS011;40423;53.176;6.002;2023-09-19T08:17:02;12.07;;;2.95;;
54517;SDS011;40423;53.176;6.002;2023-09-19T08:19:30;10.95;;;2.50;;
54517;SDS011;40423;53.176;6.002;2023-09-19T08:21:57;9.05;;;2.70;;
54517;SDS011;40423;53.176;6.002;2023-09-19T08:24:24;10.18;;;2.97;;
54517;SDS011;40423;53.176;6.002;2023-09-19T08:26:56;12.52;;;2.42;;
54517;SDS011;40423;53.176;6.002;2023-09-19T08:29:23;11.80;;;2.42;;
54517;SDS011;40423;53.176;6.002;2023-09-19T08:31:55;10.32;;;2.17;;
54517;SDS011;40423;53.176;6.002;2023-09-19T08:34:22;12.45;;;3.38;;
54517;SDS011;40423;53.176;6.002;2023-09-19T08:36:52;10.35;;;2.60;;
54517;SDS011;40423;53.176;6.002;2023-09-19T08:39:22;13.30;;;3.23;;
54517;SDS011;40423;53.176;6.002;2023-09-19T08:41:49;13.98;;;2.17;;
54517;SDS011;40423;53.176;6.002;2023-09-19T08:44:15;12.88;;;2.63;;
54517;SDS011;40423;53.176;6.002;2023-09-19T08:46:42;9.55;;;2.47;;
54517;SDS011;40423;53.176;6.002;2023-09-19T08:52:10;9.95;;;2.08;;
54517;SDS011;40423;53.176;6.002;2023-09-19T08:54:45;8.80;;;2.20;;
54517;SDS011;40423;53.176;6.002;2023-09-19T08:57:13;11.95;;;2.45;;
54517;SDS011;40423;53.176;6.002;2023-09-19T08:59:47;13.98;;;3.65;;
54517;SDS011;40423;53.176;6.002;2023-09-19T09:02:16;17.65;;;2.80;;
54517;SDS011;40423;53.176;6.002;2023-09-19T09:04:44;12.90;;;3.42;;
54517;SDS011;40423;53.176;6.002;2023-09-19T09:07:11;11.70;;;3.00;;
54517;SDS011;40423;53.176;6.002;2023-09-19T09:09:41;13.80;;;2.42;;
54517;SDS011;40423;53.176;6.002;2023-09-19T09:12:12;10.18;;;2.88;;
54517;SDS011;40423;53.176;6.002;2023-09-19T09:14:48;15.98;;;3.40;;
54517;SDS011;40423;53.176;6.002;2023-09-19T09:17:15;10.25;;;2.78;;
54517;SDS011;40423;53.176;6.002;2023-09-19T09:19:45;13.18;;;3.13;;
54517;SDS011;40423;53.176;6.002;2023-09-19T09:22:12;11.43;;;2.85;;
54517;SDS011;40423;53.176;6.002;2023-09-19T09:24:50;12.57;;;2.75;;
54517;SDS011;40423;53.176;6.002;2023-09-19T09:27:22;11.50;;;2.70;;
54517;SDS011;40423;53.176;6.002;2023-09-19T09:29:49;11.45;;;3.13;;
54517;SDS011;40423;53.176;6.002;2023-09-19T09:32:37;18.63;;;4.38;;
54517;SDS011;40423;53.176;6.002;2023-09-19T09:35:07;12.00;;;3.40;;
54517;SDS011;40423;53.176;6.002;2023-09-19T09:37:36;8.95;;;2.80;;
54517;SDS011;40423;53.176;6.002;2023-09-19T09:40:03;14.30;;;3.40;;
54517;SDS011;40423;53.176;6.002;2023-09-19T09:42:39;10.32;;;3.70;;
54517;SDS011;40423;53.176;6.002;2023-09-19T09:47:44;12.35;;;3.22;;
54517;SDS011;40423;53.176;6.002;2023-09-19T09:50:27;12.77;;;3.20;;
54517;SDS011;40423;53.176;6.002;2023-09-19T09:53:03;12.50;;;2.90;;
54517;SDS011;40423;53.176;6.002;2023-09-19T09:58:22;13.07;;;3.20;;
54517;SDS011;40423;53.176;6.002;2023-09-19T10:00:54;9.43;;;2.90;;
54517;SDS011;40423;53.176;6.002;2023-09-19T10:03:32;14.70;;;3.10;;
54517;SDS011;40423;53.176;6.002;2023-09-19T10:06:05;10.85;;;3.10;;
54517;SDS011;40423;53.176;6.002;2023-09-19T10:09:02;23.00;;;4.22;;
54517;SDS011;40423;53.176;6.002;2023-09-19T10:11:45;14.10;;;3.47;;
54517;SDS011;40423;53.176;6.002;2023-09-19T10:14:16;14.18;;;3.65;;
54517;SDS011;40423;53.176;6.002;2023-09-19T10:16:45;12.77;;;3.50;;
54517;SDS011;40423;53.176;6.002;2023-09-19T10:19:15;16.50;;;3.17;;
54517;SDS011;40423;53.176;6.002;2023-09-19T10:21:48;12.23;;;3.15;;
54517;SDS011;40423;53.176;6.002;2023-09-19T10:24:15;10.82;;;3.20;;
54517;SDS011;40423;53.176;6.002;2023-09-19T10:26:43;17.45;;;4.07;;
54517;SDS011;40423;53.176;6.002;2023-09-19T10:29:10;11.27;;;3.30;;
54517;SDS011;40423;53.176;6.002;2023-09-19T10:31:41;10.52;;;3.22;;
54517;SDS011;40423;53.176;6.002;2023-09-19T10:34:12;13.38;;;3.70;;
54517;SDS011;40423;53.176;6.002;2023-09-19T10:36:40;18.98;;;3.80;;
54517;SDS011;40423;53.176;6.002;2023-09-19T10:39:10;13.80;;;3.22;;
54517;SDS011;40423;53.176;6.002;2023-09-19T10:41:38;15.27;;;3.67;;
54517;SDS011;40423;53.176;6.002;2023-09-19T10:44:05;11.38;;;3.78;;
54517;SDS011;40423;53.176;6.002;2023-09-19T10:46:34;18.00;;;4.15;;
54517;SDS011;40423;53.176;6.002;2023-09-19T10:49:02;10.23;;;3.42;;
54517;SDS011;40423;53.176;6.002;2023-09-19T10:51:33;11.93;;;3.83;;
54517;SDS011;40423;53.176;6.002;2023-09-19T10:56:50;15.90;;;3.15;;
54517;SDS011;40423;53.176;6.002;2023-09-19T10:59:20;13.93;;;3.80;;
54517;SDS011;40423;53.176;6.002;2023-09-19T11:01:48;18.13;;;4.53;;
54517;SDS011;40423;53.176;6.002;2023-09-19T11:04:24;16.80;;;3.83;;
54517;SDS011;40423;53.176;6.002;2023-09-19T11:07:08;10.60;;;3.95;;
54517;SDS011;40423;53.176;6.002;2023-09-19T11:15:10;15.10;;;3.60;;
54517;SDS011;40423;53.176;6.002;2023-09-19T11:27:08;11.10;;;3.92;;
54517;SDS011;40423;53.176;6.002;2023-09-19T11:29:39;13.25;;;3.50;;
54517;SDS011;40423;53.176;6.002;2023-09-19T11:32:05;16.63;;;4.10;;
54517;SDS011;40423;53.176;6.002;2023-09-19T11:34:44;17.50;;;3.50;;
54517;SDS011;40423;53.176;6.002;2023-09-19T11:42:42;12.50;;;3.58;;
54517;SDS011;40423;53.176;6.002;2023-09-19T11:48:15;15.38;;;3.70;;
54517;SDS011;40423;53.176;6.002;2023-09-19T11:50:43;11.75;;;3.00;;
54517;SDS011;40423;53.176;6.002;2023-09-19T11:53:12;14.80;;;3.35;;
54517;SDS011;40423;53.176;6.002;2023-09-19T11:55:39;12.23;;;3.53;;
54517;SDS011;40423;53.176;6.002;2023-09-19T11:58:06;13.85;;;3.53;;
54517;SDS011;40423;53.176;6.002;2023-09-19T12:00:34;15.32;;;4.18;;
54517;SDS011;40423;53.176;6.002;2023-09-19T12:03:07;15.50;;;3.45;;
54517;SDS011;40423;53.176;6.002;2023-09-19T12:05:36;14.35;;;3.08;;
54517;SDS011;40423;53.176;6.002;2023-09-19T12:08:02;11.13;;;3.40;;
54517;SDS011;40423;53.176;6.002;2023-09-19T12:10:32;13.85;;;3.45;;
54517;SDS011;40423;53.176;6.002;2023-09-19T12:13:01;12.10;;;3.30;;
54517;SDS011;40423;53.176;6.002;2023-09-19T12:15:27;12.20;;;3.70;;
54517;SDS011;40423;53.176;6.002;2023-09-19T12:17:59;8.52;;;3.20;;
54517;SDS011;40423;53.176;6.002;2023-09-19T12:20:40;12.07;;;2.97;;
54517;SDS011;40423;53.176;6.002;2023-09-19T12:23:15;11.90;;;3.35;;
54517;SDS011;40423;53.176;6.002;2023-09-19T12:25:41;10.77;;;2.80;;
54517;SDS011;40423;53.176;6.002;2023-09-19T12:28:11;10.05;;;2.47;;
54517;SDS011;40423;53.176;6.002;2023-09-19T12:30:37;10.98;;;2.90;;
54517;SDS011;40423;53.176;6.002;2023-09-19T12:33:14;12.05;;;2.95;;
54517;SDS011;40423;53.176;6.002;2023-09-19T12:35:51;11.68;;;2.90;;
54517;SDS011;40423;53.176;6.002;2023-09-19T12:38:26;12.73;;;2.72;;
54517;SDS011;40423;53.176;6.002;2023-09-19T12:41:01;9.07;;;2.45;;
54517;SDS011;40423;53.176;6.002;2023-09-19T12:43:30;9.93;;;3.05;;
54517;SDS011;40423;53.176;6.002;2023-09-19T12:46:01;14.73;;;3.33;;
54517;SDS011;40423;53.176;6.002;2023-09-19T12:48:27;10.70;;;2.30;;
54517;SDS011;40423;53.176;6.002;2023-09-19T12:51:09;7.80;;;2.30;;
54517;SDS011;40423;53.176;6.002;2023-09-19T12:53:40;11.07;;;2.40;;
54517;SDS011;40423;53.176;6.002;2023-09-19T12:56:12;11.50;;;2.65;;
54517;SDS011;40423;53.176;6.002;2023-09-19T12:58:52;8.50;;;2.95;;
54517;SDS011;40423;53.176;6.002;2023-09-19T13:01:25;9.48;;;2.63;;
54517;SDS011;40423;53.176;6.002;2023-09-19T13:04:10;6.07;;;2.25;;
54517;SDS011;40423;53.176;6.002;2023-09-19T13:06:38;12.57;;;2.70;;
54517;SDS011;40423;53.176;6.002;2023-09-19T13:09:08;11.23;;;2.88;;
54517;SDS011;40423;53.176;6.002;2023-09-19T13:11:38;7.75;;;2.60;;
54517;SDS011;40423;53.176;6.002;2023-09-19T13:16:55;9.65;;;2.42;;
54517;SDS011;40423;53.176;6.002;2023-09-19T13:25:17;7.55;;;2.47;;
54517;SDS011;40423;53.176;6.002;2023-09-19T13:27:43;12.27;;;2.30;;
54517;SDS011;40423;53.176;6.002;2023-09-19T13:30:16;5.95;;;2.00;;
54517;SDS011;40423;53.176;6.002;2023-09-19T13:32:46;12.70;;;2.65;;
54517;SDS011;40423;53.176;6.002;2023-09-19T13:35:12;8.48;;;2.55;;
54517;SDS011;40423;53.176;6.002;2023-09-19T13:37:39;12.35;;;2.22;;
54517;SDS011;40423;53.176;6.002;2023-09-19T13:40:13;7.78;;;2.20;;
54517;SDS011;40423;53.176;6.002;2023-09-19T13:42:40;8.23;;;2.28;;
54517;SDS011;40423;53.176;6.002;2023-09-19T13:45:07;8.95;;;2.58;;
54517;SDS011;40423;53.176;6.002;2023-09-19T13:47:36;6.45;;;2.08;;
54517;SDS011;40423;53.176;6.002;2023-09-19T13:50:03;7.50;;;2.47;;
54517;SDS011;40423;53.176;6.002;2023-09-19T13:52:32;9.30;;;2.05;;
54517;SDS011;40423;53.176;6.002;2023-09-19T13:54:58;4.85;;;2.28;;
54517;SDS011;40423;53.176;6.002;2023-09-19T13:57:25;6.20;;;1.98;;
54517;SDS011;40423;53.176;6.002;2023-09-19T13:59:52;8.57;;;2.30;;
54517;SDS011;40423;53.176;6.002;2023-09-19T14:02:21;11.65;;;2.83;;
54517;SDS011;40423;53.176;6.002;2023-09-19T14:04:51;8.75;;;2.30;;
54517;SDS011;40423;53.176;6.002;2023-09-19T14:07:20;13.98;;;2.95;;
54517;SDS011;40423;53.176;6.002;2023-09-19T14:09:46;10.65;;;2.53;;
54517;SDS011;40423;53.176;6.002;2023-09-19T14:12:13;7.68;;;2.30;;
54517;SDS011;40423;53.176;6.002;2023-09-19T14:14:39;8.57;;;2.63;;
54517;SDS011;40423;53.176;6.002;2023-09-19T14:17:08;9.40;;;2.45;;
54517;SDS011;40423;53.176;6.002;2023-09-19T14:19:34;7.75;;;2.70;;
54517;SDS011;40423;53.176;6.002;2023-09-19T14:22:01;10.20;;;2.80;;
54517;SDS011;40423;53.176;6.002;2023-09-19T14:24:32;9.40;;;2.65;;
54517;SDS011;40423;53.176;6.002;2023-09-19T14:26:59;9.23;;;2.05;;
54517;SDS011;40423;53.176;6.002;2023-09-19T14:29:24;7.93;;;2.38;;
54517;SDS011;40423;53.176;6.002;2023-09-19T14:31:50;11.68;;;2.90;;
54517;SDS011;40423;53.176;6.002;2023-09-19T14:34:17;11.25;;;3.05;;
54517;SDS011;40423;53.176;6.002;2023-09-19T14:36:42;10.50;;;2.90;;
54517;SDS011;40423;53.176;6.002;2023-09-19T14:39:08;8.90;;;2.97;;
54517;SDS011;40423;53.176;6.002;2023-09-19T14:41:34;11.32;;;3.55;;
54517;SDS011;40423;53.176;6.002;2023-09-19T14:44:02;7.10;;;2.53;;
54517;SDS011;40423;53.176;6.002;2023-09-19T14:46:31;10.50;;;3.22;;
54517;SDS011;40423;53.176;6.002;2023-09-19T14:48:57;10.63;;;3.03;;
54517;SDS011;40423;53.176;6.002;2023-09-19T14:51:25;10.75;;;3.03;;
54517;SDS011;40423;53.176;6.002;2023-09-19T14:53:54;13.13;;;3.28;;
54517;SDS011;40423;53.176;6.002;2023-09-19T14:56:21;10.20;;;2.55;;
54517;SDS011;40423;53.176;6.002;2023-09-19T14:58:49;16.33;;;3.40;;
54517;SDS011;40423;53.176;6.002;2023-09-19T15:01:14;13.27;;;3.75;;
54517;SDS011;40423;53.176;6.002;2023-09-19T15:03:41;15.57;;;3.65;;
54517;SDS011;40423;53.176;6.002;2023-09-19T15:06:10;17.10;;;3.65;;
54517;SDS011;40423;53.176;6.002;2023-09-19T15:08:41;13.18;;;3.65;;
54517;SDS011;40423;53.176;6.002;2023-09-19T15:11:12;10.98;;;2.92;;
54517;SDS011;40423;53.176;6.002;2023-09-19T15:13:40;8.25;;;2.63;;
54517;SDS011;40423;53.176;6.002;2023-09-19T15:16:07;8.05;;;2.25;;
54517;SDS011;40423;53.176;6.002;2023-09-19T15:18:37;8.95;;;2.65;;
54517;SDS011;40423;53.176;6.002;2023-09-19T15:21:04;9.65;;;2.63;;
54517;SDS011;40423;53.176;6.002;2023-09-19T15:23:31;10.32;;;2.70;;
54517;SDS011;40423;53.176;6.002;2023-09-19T15:26:02;14.40;;;3.05;;
54517;SDS011;40423;53.176;6.002;2023-09-19T15:28:42;10.85;;;2.95;;
54517;SDS011;40423;53.176;6.002;2023-09-19T15:31:08;11.68;;;3.60;;
54517;SDS011;40423;53.176;6.002;2023-09-19T15:33:35;8.45;;;2.90;;
54517;SDS011;40423;53.176;6.002;2023-09-19T15:36:03;11.77;;;2.80;;
54517;SDS011;40423;53.176;6.002;2023-09-19T15:38:30;7.65;;;2.55;;
54517;SDS011;40423;53.176;6.002;2023-09-19T15:40:57;11.30;;;2.92;;
54517;SDS011;40423;53.176;6.002;2023-09-19T15:43:24;8.73;;;2.75;;
54517;SDS011;40423;53.176;6.002;2023-09-19T15:45:49;7.32;;;3.08;;
54517;SDS011;40423;53.176;6.002;2023-09-19T15:48:15;9.77;;;2.70;;
54517;SDS011;40423;53.176;6.002;2023-09-19T15:50:44;9.88;;;2.92;;
54517;SDS011;40423;53.176;6.002;2023-09-19T15:53:19;10.52;;;3.28;;
54517;SDS011;40423;53.176;6.002;2023-09-19T15:55:45;10.40;;;3.53;;